Cumming, Iowa
Current Conditions -  °F | °C
As of 11:54 AM on Friday 24 Oct 2014 (Local Time) from KDSM Reporting Station
Haze Haze  
Wind Chill: 63°   Ceiling: 600
Heat Index: 63°   Visibility: 3mi
Dew Point: 60°   Wind: 12mph
Humidity: 90%   Direction: 200°SSW
Pressure: 29.95"   Gusts: NA
Location:  41.48°N, 93.76°W
Report Text: KDSM 241654Z 20010KT 3SM BR OVC006 17/16 A2995 RMK AO2 SFC VIS 4 SLP139 T01720156
Loading
Personal Weather Stations






























Interactive Weather Map
Tropical Storm Tracking
New forecast layout! Learn more

10-Day Weather Forecast

Advertisements
Track Severe Weather on mobile